Time;durP1;ratioP1;P1;durP2;ratioP2;P2;SDS_P1;SDS_P2;PMS_P1;PMS_P2;Temp;Humidity;BMP_temperature;BMP_pressure;BME280_temperature;BME280_humidity;BME280_pressure;Samples;Min_cycle;Max_cycle;Signal;HPM_P1;HPM_P2
2022/01/03 00:01:19;;;;;;;19.83;3.10;;;9.10;99.90;;;;;;4991442;28;20049;-58
2022/01/03 00:03:45;;;;;;;19.85;2.78;;;9.10;99.90;;;;;;4955055;28;20054;-58
2022/01/03 00:06:11;;;;;;;21.25;2.90;;;9.10;99.90;;;;;;4971909;28;20054;-58
2022/01/03 00:08:41;;;;;;;23.38;2.97;;;9.20;99.90;;;;;;4971841;28;20043;-58
2022/01/03 00:11:08;;;;;;;22.67;2.88;;;9.10;99.90;;;;;;4971683;28;20105;-58
2022/01/03 00:13:34;;;;;;;16.25;2.72;;;9.10;99.90;;;;;;4971715;28;20144;-58
2022/01/03 00:16:00;;;;;;;23.15;2.95;;;9.10;99.90;;;;;;4972147;28;20060;-58
2022/01/03 00:18:26;;;;;;;16.38;2.42;;;9.10;99.90;;;;;;4971768;28;20363;-58
2022/01/03 00:20:59;;;;;;;19.30;3.03;;;9.00;99.90;;;;;;4974751;28;20053;-58
2022/01/03 00:23:28;;;;;;;19.05;2.70;;;9.10;99.90;;;;;;4972883;28;20034;-58
2022/01/03 00:25:59;;;;;;;19.85;2.78;;;9.10;99.90;;;;;;4980467;28;20035;-58
2022/01/03 00:28:34;;;;;;;15.15;2.70;;;9.10;99.90;;;;;;4972394;28;20038;-58
2022/01/03 00:31:00;;;;;;;23.58;3.53;;;9.10;99.90;;;;;;4984159;28;20070;-58
2022/01/03 00:33:27;;;;;;;21.05;3.00;;;9.20;99.90;;;;;;4972051;28;20107;-57
2022/01/03 00:35:58;;;;;;;21.08;2.95;;;9.20;99.90;;;;;;4971770;28;20027;-58
2022/01/03 00:38:26;;;;;;;16.30;2.72;;;9.30;99.90;;;;;;4990517;28;20113;-58
2022/01/03 00:40:52;;;;;;;23.33;3.10;;;9.30;99.90;;;;;;4990760;28;20065;-58
2022/01/03 00:43:18;;;;;;;16.00;2.75;;;9.30;99.90;;;;;;4991260;28;20478;-58
2022/01/03 00:45:44;;;;;;;23.30;3.00;;;9.30;99.90;;;;;;4973566;28;20045;-58
2022/01/03 00:48:11;;;;;;;21.05;3.30;;;9.30;99.90;;;;;;4990994;28;20034;-58
2022/01/03 00:50:37;;;;;;;20.08;3.22;;;9.40;99.90;;;;;;4990861;28;20038;-58
2022/01/03 00:53:03;;;;;;;25.35;3.67;;;9.30;99.90;;;;;;4990907;28;20129;-58
2022/01/03 00:55:29;;;;;;;25.05;3.30;;;9.40;99.90;;;;;;4991169;28;20114;-58
2022/01/03 00:58:09;;;;;;;21.77;2.97;;;9.30;99.90;;;;;;4976938;28;20039;-57
2022/01/03 01:00:40;;;;;;;24.77;3.45;;;9.30;99.90;;;;;;4971663;28;20427;-58
2022/01/03 01:03:20;;;;;;;21.67;3.05;;;9.30;99.90;;;;;;4975475;28;20470;-57
2022/01/03 01:05:48;;;;;;;22.20;3.15;;;9.20;99.90;;;;;;4993811;28;20066;-58
2022/01/03 01:08:19;;;;;;;26.48;3.60;;;9.20;99.90;;;;;;4984022;28;20037;-57
2022/01/03 01:10:45;;;;;;;27.60;3.05;;;9.20;99.90;;;;;;4976095;28;20049;-57
2022/01/03 01:13:14;;;;;;;31.60;3.25;;;9.20;99.90;;;;;;4974413;28;20066;-57
2022/01/03 01:15:41;;;;;;;20.60;2.92;;;9.20;99.90;;;;;;4975569;28;20089;-57
2022/01/03 01:18:07;;;;;;;23.63;2.72;;;9.20;99.90;;;;;;4983561;28;20033;-57
2022/01/03 01:20:35;;;;;;;26.33;3.45;;;9.20;99.90;;;;;;4976152;28;20456;-57
2022/01/03 01:23:04;;;;;;;27.73;2.70;;;9.20;99.90;;;;;;4975001;28;20049;-57
2022/01/03 01:28:03;;;;;;;22.58;3.17;;;9.20;99.90;;;;;;4978620;28;20047;-57
2022/01/03 01:30:29;;;;;;;21.05;2.78;;;9.20;99.90;;;;;;4973214;28;20031;-57
2022/01/03 01:33:02;;;;;;;23.13;3.05;;;9.20;99.90;;;;;;4978045;28;20038;-57
2022/01/03 01:35:41;;;;;;;20.27;3.63;;;9.20;99.90;;;;;;4974610;28;20031;-57
2022/01/03 01:38:28;;;;;;;26.02;3.15;;;9.20;99.90;;;;;;4975765;28;20100;-57
2022/01/03 01:40:56;;;;;;;17.98;3.03;;;9.30;99.90;;;;;;4973536;28;20034;-57
2022/01/03 01:43:36;;;;;;;24.58;3.03;;;9.30;99.90;;;;;;4974476;28;20082;-57
2022/01/03 01:46:09;;;;;;;24.40;3.20;;;9.30;99.90;;;;;;4993299;28;20026;-57
2022/01/03 01:48:38;;;;;;;20.38;3.40;;;9.30;99.90;;;;;;4987591;28;20078;-58
2022/01/03 01:51:06;;;;;;;26.40;2.90;;;9.30;99.90;;;;;;4973205;28;20037;-58
2022/01/03 01:53:40;;;;;;;23.00;3.13;;;9.30;99.90;;;;;;4973836;28;20507;-58
2022/01/03 01:56:14;;;;;;;17.67;3.25;;;9.20;99.90;;;;;;4992345;28;20038;-58
2022/01/03 01:59:01;;;;;;;24.20;3.17;;;9.20;99.90;;;;;;4993579;28;20077;-57
2022/01/03 02:01:41;;;;;;;23.55;3.00;;;9.20;99.90;;;;;;4993543;28;20068;-57
2022/01/03 02:04:16;;;;;;;20.92;2.70;;;9.10;99.90;;;;;;4993732;28;20039;-57
2022/01/03 02:06:48;;;;;;;25.65;3.58;;;9.10;99.90;;;;;;4960087;28;20046;-57
2022/01/03 02:09:28;;;;;;;23.83;3.38;;;9.00;99.90;;;;;;4991245;28;20089;-58
2022/01/03 02:11:57;;;;;;;24.30;3.92;;;9.00;99.90;;;;;;4956101;28;20048;-57
2022/01/03 02:14:25;;;;;;;25.63;3.50;;;9.00;99.90;;;;;;4972850;28;20435;-57
2022/01/03 02:16:52;;;;;;;20.75;3.60;;;9.00;99.90;;;;;;4986250;28;20042;-57
2022/01/03 02:19:21;;;;;;;20.95;3.63;;;9.00;99.90;;;;;;4974398;28;20050;-57
2022/01/03 02:21:47;;;;;;;17.50;2.90;;;8.90;99.90;;;;;;4975807;28;20445;-57
2022/01/03 02:24:13;;;;;;;22.27;3.40;;;8.90;99.90;;;;;;4975446;28;20105;-58
2022/01/03 02:26:40;;;;;;;24.38;3.45;;;8.90;99.90;;;;;;4975300;28;20034;-58
2022/01/03 02:29:06;;;;;;;28.33;3.60;;;8.80;99.90;;;;;;4974164;28;20482;-58
2022/01/03 02:31:33;;;;;;;18.25;2.80;;;8.80;99.90;;;;;;4974602;28;20073;-58
2022/01/03 02:34:03;;;;;;;25.25;3.40;;;8.80;99.90;;;;;;4975443;28;20041;-58
2022/01/03 02:36:33;;;;;;;22.42;3.78;;;8.80;99.90;;;;;;4974025;28;20118;-57
2022/01/03 02:38:59;;;;;;;25.42;3.78;;;8.90;99.90;;;;;;4975430;28;20121;-57
2022/01/03 02:41:25;;;;;;;27.00;4.20;;;9.20;99.90;;;;;;4974117;28;20081;-58
2022/01/03 02:43:52;;;;;;;23.35;3.03;;;8.80;99.90;;;;;;4975434;28;20069;-58
2022/01/03 02:46:18;;;;;;;28.38;4.57;;;8.80;99.90;;;;;;4973049;28;20053;-58
2022/01/03 02:48:43;;;;;;;26.00;3.75;;;8.80;99.90;;;;;;4975951;28;20031;-58
2022/01/03 02:51:11;;;;;;;26.30;3.90;;;8.80;99.90;;;;;;4973436;28;20081;-58
2022/01/03 02:53:38;;;;;;;30.33;3.97;;;8.70;99.90;;;;;;4975625;28;20379;-58
2022/01/03 02:56:03;;;;;;;21.55;3.20;;;8.70;99.90;;;;;;4973289;28;20447;-58
2022/01/03 02:58:30;;;;;;;30.23;3.33;;;8.70;99.90;;;;;;4972741;28;20073;-58
2022/01/03 03:00:56;;;;;;;21.05;3.00;;;8.70;99.90;;;;;;4972917;28;20125;-57
2022/01/03 03:03:22;;;;;;;25.40;3.42;;;8.70;99.90;;;;;;4972715;28;20523;-58
2022/01/03 03:05:50;;;;;;;27.02;3.75;;;8.70;99.90;;;;;;4972896;28;20050;-57
2022/01/03 03:08:16;;;;;;;23.75;3.65;;;8.70;99.90;;;;;;4975083;28;20030;-57
2022/01/03 03:10:43;;;;;;;24.90;3.08;;;8.70;99.90;;;;;;4973367;28;20046;-57
2022/01/03 03:13:09;;;;;;;27.08;3.83;;;8.70;99.90;;;;;;4972287;28;20038;-57
2022/01/03 03:15:35;;;;;;;23.60;2.95;;;8.70;99.90;;;;;;4973016;28;20494;-58
2022/01/03 03:18:01;;;;;;;21.67;4.10;;;8.60;99.90;;;;;;4972450;28;20039;-58
2022/01/03 03:20:32;;;;;;;28.90;3.40;;;8.60;99.90;;;;;;4972215;28;20051;-58
2022/01/03 03:22:59;;;;;;;30.13;3.65;;;8.60;99.90;;;;;;4991043;28;20394;-58
2022/01/03 03:25:27;;;;;;;22.88;3.22;;;8.60;99.90;;;;;;4974734;28;20069;-58
2022/01/03 03:28:00;;;;;;;28.83;3.38;;;8.60;99.90;;;;;;4991730;28;20425;-58
2022/01/03 03:30:30;;;;;;;21.80;3.67;;;8.60;99.90;;;;;;4955778;28;20157;-58
2022/01/03 03:33:04;;;;;;;23.88;4.07;;;8.60;99.90;;;;;;4990800;28;20482;-57
2022/01/03 03:35:30;;;;;;;24.48;3.30;;;8.50;99.90;;;;;;4991527;28;20030;-57
2022/01/03 03:37:56;;;;;;;25.17;3.35;;;8.60;99.90;;;;;;4992246;28;20109;-57
2022/01/03 03:40:22;;;;;;;26.33;3.15;;;8.70;99.90;;;;;;4976889;28;20043;-57
2022/01/03 03:42:47;;;;;;;25.35;4.15;;;8.70;99.90;;;;;;4973172;28;20372;-58
2022/01/03 03:45:13;;;;;;;31.17;5.10;;;8.80;99.90;;;;;;4972278;28;20042;-57
2022/01/03 03:47:43;;;;;;;26.75;3.40;;;8.80;99.90;;;;;;4972145;28;20043;-58
2022/01/03 03:50:09;;;;;;;27.40;3.97;;;8.80;99.90;;;;;;4972314;28;20053;-57
2022/01/03 03:52:34;;;;;;;30.33;3.45;;;8.90;99.90;;;;;;4971804;28;20096;-58
2022/01/03 03:55:00;;;;;;;26.73;3.70;;;8.90;99.90;;;;;;4971767;28;20042;-58
2022/01/03 03:57:26;;;;;;;27.10;3.88;;;8.90;99.90;;;;;;4972117;28;20038;-56
2022/01/03 03:59:53;;;;;;;30.67;4.18;;;9.00;99.90;;;;;;4980501;28;20047;-57
2022/01/03 04:02:19;;;;;;;25.75;3.45;;;9.00;99.90;;;;;;4975362;28;20053;-57
2022/01/03 04:04:44;;;;;;;25.02;3.63;;;9.00;99.90;;;;;;4972401;28;20035;-57
2022/01/03 04:07:10;;;;;;;29.58;3.72;;;9.00;99.90;;;;;;4972397;28;20043;-58
2022/01/03 04:09:36;;;;;;;24.13;3.50;;;9.00;99.90;;;;;;4973285;28;20082;-58
2022/01/03 04:12:02;;;;;;;24.63;3.45;;;8.90;99.90;;;;;;4972446;28;20047;-57
2022/01/03 04:14:27;;;;;;;26.02;3.53;;;8.90;99.90;;;;;;4973013;28;20051;-58
2022/01/03 04:16:53;;;;;;;30.75;3.88;;;8.80;99.90;;;;;;4972546;28;20038;-57
2022/01/03 04:19:19;;;;;;;26.25;3.90;;;8.90;99.90;;;;;;4974140;28;20061;-57
2022/01/03 04:21:45;;;;;;;30.35;3.97;;;8.90;99.90;;;;;;4971667;28;20038;-57
2022/01/03 04:24:11;;;;;;;23.58;4.13;;;8.90;99.90;;;;;;4974374;28;20838;-57
2022/01/03 04:26:38;;;;;;;29.35;3.58;;;8.90;99.90;;;;;;4971536;28;20122;-56
2022/01/03 04:29:05;;;;;;;28.60;4.10;;;9.00;99.90;;;;;;4976141;28;20039;-57
2022/01/03 04:31:31;;;;;;;23.33;4.50;;;8.90;99.90;;;;;;4971800;28;20057;-57
2022/01/03 04:33:57;;;;;;;23.83;4.00;;;8.90;99.90;;;;;;4974774;28;20027;-57
2022/01/03 04:36:24;;;;;;;24.88;3.83;;;9.00;99.90;;;;;;4971817;28;20037;-57
2022/01/03 04:38:50;;;;;;;33.80;4.63;;;8.90;99.90;;;;;;4979002;28;20046;-57
2022/01/03 04:41:15;;;;;;;29.50;4.13;;;8.90;99.90;;;;;;4993167;28;20039;-58
2022/01/03 04:43:41;;;;;;;32.53;4.10;;;8.90;99.90;;;;;;4981610;28;20045;-58
2022/01/03 04:46:11;;;;;;;26.08;4.65;;;8.90;99.90;;;;;;4974960;28;20043;-58
2022/01/03 04:48:38;;;;;;;30.20;5.03;;;8.80;99.90;;;;;;4979748;28;20048;-58
2022/01/03 04:51:05;;;;;;;35.08;4.50;;;8.90;99.90;;;;;;4992650;28;20034;-57
2022/01/03 04:53:33;;;;;;;27.98;4.03;;;8.90;99.90;;;;;;4986024;28;20490;-57
2022/01/03 04:55:58;;;;;;;30.27;4.50;;;8.90;99.90;;;;;;4975176;28;20051;-57
2022/01/03 04:58:24;;;;;;;30.27;4.03;;;8.80;99.90;;;;;;4979347;28;20104;-58
2022/01/03 05:00:50;;;;;;;25.50;4.15;;;8.80;99.90;;;;;;4975393;28;20497;-58
2022/01/03 05:03:16;;;;;;;27.58;3.72;;;8.90;99.90;;;;;;4978367;28;20030;-58
2022/01/03 05:05:42;;;;;;;35.17;4.57;;;8.80;99.90;;;;;;4975690;28;20045;-56
2022/01/03 05:08:07;;;;;;;31.10;4.60;;;8.80;99.90;;;;;;4976271;28;20159;-59
2022/01/03 05:10:33;;;;;;;30.15;3.88;;;8.80;99.90;;;;;;4975073;28;20406;-56
2022/01/03 05:13:00;;;;;;;36.65;4.53;;;8.80;99.90;;;;;;4976406;28;20145;-56
2022/01/03 05:15:25;;;;;;;25.33;4.38;;;8.80;99.90;;;;;;4977108;28;20307;-56
2022/01/03 05:17:51;;;;;;;27.70;4.35;;;8.80;99.90;;;;;;4975261;28;20200;-57
2022/01/03 05:20:17;;;;;;;27.55;4.35;;;8.70;99.90;;;;;;4977335;28;20046;-57
2022/01/03 05:22:43;;;;;;;34.38;4.15;;;8.90;99.90;;;;;;4974810;28;20050;-57
2022/01/03 05:25:08;;;;;;;35.60;4.70;;;8.70;99.90;;;;;;4977635;28;20109;-57
2022/01/03 05:27:37;;;;;;;30.10;4.05;;;8.70;99.90;;;;;;4974638;28;20050;-56
2022/01/03 05:30:04;;;;;;;32.03;4.45;;;8.80;99.90;;;;;;4979565;28;20494;-57
2022/01/03 05:32:30;;;;;;;26.63;4.00;;;8.70;99.90;;;;;;4975150;28;20498;-57
2022/01/03 05:34:55;;;;;;;25.15;3.47;;;8.70;99.90;;;;;;4974892;28;20042;-57
2022/01/03 05:37:21;;;;;;;28.80;4.30;;;8.70;99.90;;;;;;4975011;28;20042;-57
2022/01/03 05:39:47;;;;;;;34.80;4.10;;;8.70;99.90;;;;;;4973552;28;20054;-57
2022/01/03 05:42:12;;;;;;;25.92;4.38;;;8.70;99.90;;;;;;4974704;28;20050;-57
2022/01/03 05:44:38;;;;;;;32.30;4.13;;;8.60;99.90;;;;;;4974485;28;20035;-57
2022/01/03 05:47:04;;;;;;;24.70;4.45;;;8.60;99.90;;;;;;4974272;28;20069;-57
2022/01/03 05:49:30;;;;;;;26.08;3.95;;;8.60;99.90;;;;;;4973773;28;20039;-57
2022/01/03 05:51:55;;;;;;;28.77;4.38;;;8.60;99.90;;;;;;4974263;28;20034;-58
2022/01/03 05:54:21;;;;;;;24.23;4.05;;;8.60;99.90;;;;;;4974117;28;20050;-58
2022/01/03 05:56:47;;;;;;;33.35;5.03;;;8.50;99.90;;;;;;4974169;28;20035;-58
2022/01/03 05:59:12;;;;;;;25.35;4.13;;;8.50;99.90;;;;;;4974384;28;20035;-57
2022/01/03 06:01:39;;;;;;;34.45;5.45;;;8.50;99.90;;;;;;4974457;28;20039;-57
2022/01/03 06:04:53;;;;;;;39.75;4.88;;;8.50;99.90;;;;;;4974412;28;20853;-57
2022/01/03 06:07:10;;;;;;;25.85;5.03;;;8.50;99.90;;;;;;4989280;28;20046;-57
2022/01/03 06:09:36;;;;;;;29.95;4.47;;;8.50;99.90;;;;;;4992756;28;20478;-57
2022/01/03 06:12:03;;;;;;;37.63;5.15;;;8.50;99.90;;;;;;4975786;28;20077;-58
2022/01/03 06:14:29;;;;;;;36.92;4.85;;;8.50;99.90;;;;;;4992792;28;20054;-57
2022/01/03 06:16:55;;;;;;;38.22;5.45;;;8.50;99.90;;;;;;4993110;28;20513;-57
2022/01/03 06:19:21;;;;;;;38.50;4.82;;;8.60;99.90;;;;;;4993008;28;20050;-58
2022/01/03 06:21:47;;;;;;;41.35;5.30;;;8.50;99.90;;;;;;4993283;28;20124;-58
2022/01/03 06:24:15;;;;;;;39.10;5.30;;;8.50;99.90;;;;;;4993137;28;20038;-58
2022/01/03 06:26:42;;;;;;;41.10;4.57;;;8.50;99.90;;;;;;4993227;28;20061;-58
2022/01/03 06:29:12;;;;;;;36.78;4.88;;;8.50;99.90;;;;;;4992970;28;20042;-58
2022/01/03 06:31:39;;;;;;;35.30;4.72;;;8.50;99.90;;;;;;4992985;28;20398;-57
2022/01/03 06:34:04;;;;;;;39.80;5.45;;;8.50;99.90;;;;;;4993087;28;20070;-58
2022/01/03 06:36:30;;;;;;;34.17;5.43;;;8.60;99.90;;;;;;4992032;28;20560;-58
2022/01/03 06:38:57;;;;;;;36.75;4.47;;;8.50;99.90;;;;;;4992412;28;20081;-58
2022/01/03 06:41:24;;;;;;;38.75;5.28;;;8.50;99.90;;;;;;4992431;28;20074;-58
2022/01/03 06:43:50;;;;;;;37.80;5.60;;;8.60;99.90;;;;;;4992501;28;20065;-58
2022/01/03 06:46:16;;;;;;;33.70;4.53;;;8.60;99.90;;;;;;4974403;28;20038;-58
2022/01/03 06:48:43;;;;;;;31.65;4.72;;;8.60;99.90;;;;;;4992437;28;20044;-58
2022/01/03 06:51:09;;;;;;;36.95;4.38;;;8.60;99.90;;;;;;4992779;28;20073;-59
2022/01/03 06:53:35;;;;;;;41.40;4.97;;;8.80;99.90;;;;;;4992811;28;20038;-57
2022/01/03 06:56:01;;;;;;;51.33;5.65;;;8.60;99.90;;;;;;4992601;28;20049;-58
2022/01/03 06:58:27;;;;;;;35.70;5.35;;;8.60;99.90;;;;;;4992002;28;20034;-57
2022/01/03 07:00:52;;;;;;;31.83;4.68;;;8.60;99.90;;;;;;4992158;28;20092;-58
2022/01/03 07:03:18;;;;;;;44.47;5.30;;;8.60;99.90;;;;;;4992412;28;20041;-57
2022/01/03 07:05:44;;;;;;;34.03;5.20;;;8.60;99.90;;;;;;4974421;28;20041;-57
2022/01/03 07:08:09;;;;;;;35.42;5.05;;;8.50;99.90;;;;;;4992127;28;20486;-57
2022/01/03 07:10:35;;;;;;;44.13;6.05;;;8.60;99.90;;;;;;4991497;28;20042;-57
2022/01/03 07:13:01;;;;;;;34.25;5.40;;;8.50;99.90;;;;;;4992196;28;20038;-57
2022/01/03 07:20:56;;;;;;;;;;;8.50;99.90;;;;;;4973242;28;20049;-57
2022/01/03 07:23:22;;;;;;;36.08;5.43;;;8.50;99.90;;;;;;4954669;28;20292;-57
2022/01/03 07:25:49;;;;;;;39.13;6.82;;;8.60;99.90;;;;;;4972533;28;20093;-57
2022/01/03 07:28:16;;;;;;;38.20;5.32;;;8.60;99.90;;;;;;4972312;28;20126;-57
2022/01/03 07:30:43;;;;;;;39.80;5.82;;;8.70;99.90;;;;;;4972291;28;20080;-57
2022/01/03 07:33:09;;;;;;;45.22;5.78;;;8.70;99.90;;;;;;4972299;28;20047;-57
2022/01/03 07:35:35;;;;;;;41.65;5.30;;;8.70;99.90;;;;;;4961034;28;20039;-56
2022/01/03 07:38:03;;;;;;;36.50;5.78;;;8.80;99.90;;;;;;4952891;28;20487;-57
2022/01/03 07:40:29;;;;;;;37.70;5.82;;;8.90;99.90;;;;;;4952878;28;20522;-57
2022/01/03 07:42:56;;;;;;;39.17;6.00;;;9.00;99.90;;;;;;4952877;28;20035;-57
2022/01/03 07:45:21;;;;;;;35.53;5.63;;;9.00;99.90;;;;;;4952990;28;20054;-57
2022/01/03 07:47:47;;;;;;;43.90;5.70;;;9.00;99.90;;;;;;4952898;28;20038;-58
2022/01/03 07:50:13;;;;;;;34.75;4.97;;;9.00;99.90;;;;;;4951827;28;20044;-58
2022/01/03 07:52:39;;;;;;;47.38;5.50;;;9.00;99.90;;;;;;4952292;28;20036;-58
2022/01/03 07:55:08;;;;;;;32.08;5.30;;;9.10;99.90;;;;;;4952862;28;20101;-58
2022/01/03 07:57:36;;;;;;;32.08;5.18;;;9.10;99.90;;;;;;4954494;28;20043;-58
2022/01/03 08:00:07;;;;;;;26.10;4.43;;;9.20;99.90;;;;;;4972044;28;20372;-58
2022/01/03 08:02:33;;;;;;;44.53;5.30;;;9.10;99.90;;;;;;4971924;28;20394;-58
2022/01/03 08:04:59;;;;;;;28.83;5.22;;;9.40;99.90;;;;;;4954605;28;20042;-58
2022/01/03 08:07:25;;;;;;;32.20;4.68;;;9.20;99.90;;;;;;4972112;28;20051;-58
2022/01/03 08:09:51;;;;;;;35.58;4.93;;;9.10;99.90;;;;;;4971579;28;20134;-57
2022/01/03 08:12:17;;;;;;;41.35;5.28;;;9.10;99.90;;;;;;4972489;28;20743;-58
2022/01/03 08:14:44;;;;;;;31.55;4.78;;;9.10;99.90;;;;;;4971923;28;20109;-57
2022/01/03 08:17:10;;;;;;;34.90;5.03;;;9.10;99.90;;;;;;4978511;28;20078;-57
2022/01/03 08:19:35;;;;;;;41.35;5.38;;;9.10;99.90;;;;;;4980010;28;20525;-58
2022/01/03 08:22:01;;;;;;;35.42;5.28;;;9.20;99.90;;;;;;4976684;28;20050;-58
2022/01/03 08:24:27;;;;;;;41.25;5.38;;;9.10;99.90;;;;;;4975983;28;20118;-58
2022/01/03 08:26:54;;;;;;;36.72;5.30;;;9.10;99.90;;;;;;4978222;28;20038;-58
2022/01/03 08:29:20;;;;;;;34.95;5.45;;;9.20;99.90;;;;;;4980500;28;20093;-57
2022/01/03 08:31:46;;;;;;;40.78;5.15;;;9.20;99.90;;;;;;4979611;28;20120;-57
2022/01/03 08:34:12;;;;;;;31.10;5.53;;;9.20;99.90;;;;;;4980428;28;20077;-58
2022/01/03 08:36:38;;;;;;;42.28;5.63;;;9.30;99.90;;;;;;4980339;28;20390;-58
2022/01/03 08:39:05;;;;;;;32.15;5.25;;;9.20;99.90;;;;;;4975767;28;20034;-58
2022/01/03 08:41:31;;;;;;;40.97;5.85;;;9.20;99.90;;;;;;4976527;28;20572;-57
2022/01/03 08:43:56;;;;;;;33.60;4.70;;;9.20;99.90;;;;;;4981274;28;20133;-57
2022/01/03 08:46:23;;;;;;;36.28;5.30;;;9.30;99.90;;;;;;4978104;28;20038;-57
2022/01/03 08:48:51;;;;;;;33.17;4.35;;;9.30;99.90;;;;;;4979087;28;20058;-58
2022/01/03 08:51:17;;;;;;;38.22;5.30;;;9.30;99.90;;;;;;4976921;28;20169;-58
2022/01/03 08:53:42;;;;;;;38.63;4.63;;;9.30;99.90;;;;;;4979136;28;20559;-59
2022/01/03 08:56:08;;;;;;;33.88;4.80;;;9.40;99.90;;;;;;4977480;28;20035;-59
2022/01/03 08:58:34;;;;;;;35.78;4.95;;;9.40;99.90;;;;;;4979661;28;20478;-58
2022/01/03 09:01:00;;;;;;;36.33;6.20;;;9.40;99.90;;;;;;4980630;28;20390;-57
2022/01/03 09:03:26;;;;;;;33.95;4.32;;;9.50;99.90;;;;;;4980530;28;20034;-58
2022/01/03 09:05:53;;;;;;;29.13;4.45;;;9.50;99.90;;;;;;4980643;28;20057;-58
2022/01/03 09:08:19;;;;;;;30.50;4.43;;;9.50;99.90;;;;;;4981053;28;20042;-58
2022/01/03 09:10:45;;;;;;;28.83;4.90;;;9.50;99.90;;;;;;4978601;28;20073;-58
2022/01/03 09:13:11;;;;;;;38.03;5.28;;;9.50;99.90;;;;;;4979165;28;20348;-58
2022/01/03 09:15:37;;;;;;;34.50;5.00;;;9.60;99.90;;;;;;4977021;28;20054;-58
2022/01/03 09:18:03;;;;;;;33.83;4.25;;;9.60;99.90;;;;;;4977721;28;20042;-58
2022/01/03 09:20:29;;;;;;;28.40;4.28;;;9.60;99.90;;;;;;4962816;28;20053;-58
2022/01/03 09:23:04;;;;;;;31.77;4.95;;;9.60;99.90;;;;;;4977517;28;20039;-58
2022/01/03 09:30:49;;;;;;;27.17;4.07;;;9.70;99.90;;;;;;4981844;28;20081;-58
2022/01/03 09:33:14;;;;;;;28.65;4.18;;;9.70;99.90;;;;;;4981399;28;20043;-58
2022/01/03 09:35:41;;;;;;;29.67;4.65;;;9.70;99.90;;;;;;4978177;28;20035;-58
2022/01/03 09:38:07;;;;;;;33.72;7.22;;;9.70;99.90;;;;;;4978908;28;20097;-57
2022/01/03 09:40:32;;;;;;;35.92;5.32;;;9.70;99.90;;;;;;4978737;28;20070;-57
2022/01/03 09:43:00;;;;;;;33.50;4.72;;;9.80;99.90;;;;;;4979776;28;20026;-57
2022/01/03 09:45:28;;;;;;;34.92;5.20;;;9.70;99.90;;;;;;4978583;28;20109;-58
2022/01/03 09:47:55;;;;;;;39.83;5.80;;;9.80;99.90;;;;;;4976622;28;20038;-57
2022/01/03 09:50:22;;;;;;;35.15;5.28;;;9.80;99.90;;;;;;4977486;28;20114;-57
2022/01/03 09:52:49;;;;;;;35.53;5.25;;;9.80;99.90;;;;;;4976528;28;21502;-57
2022/01/03 09:55:17;;;;;;;33.45;4.53;;;10.00;99.90;;;;;;4976009;28;20053;-57
2022/01/03 09:57:45;;;;;;;28.33;4.70;;;9.80;99.90;;;;;;4979848;28;20034;-58
2022/01/03 10:00:13;;;;;;;27.92;4.63;;;9.80;99.90;;;;;;4981184;28;20041;-57
2022/01/03 10:02:39;;;;;;;30.25;4.78;;;9.90;99.90;;;;;;4978436;28;20048;-57
2022/01/03 10:05:06;;;;;;;29.23;4.22;;;9.90;99.90;;;;;;4978121;28;20410;-57
2022/01/03 10:07:33;;;;;;;31.52;4.35;;;9.90;99.90;;;;;;4978146;28;20061;-59
2022/01/03 10:10:00;;;;;;;37.10;4.97;;;9.90;99.90;;;;;;4975010;28;20043;-57
2022/01/03 10:12:27;;;;;;;36.80;6.85;;;9.90;99.90;;;;;;4984176;28;20059;-57
2022/01/03 10:14:53;;;;;;;30.90;4.80;;;9.90;99.90;;;;;;4991171;28;20046;-58
2022/01/03 10:17:19;;;;;;;31.33;5.97;;;10.00;99.90;;;;;;4977112;28;20038;-58
2022/01/03 10:20:01;;;;;;;30.73;4.57;;;10.00;99.90;;;;;;4978488;28;20533;-57
2022/01/03 10:22:30;;;;;;;36.33;4.82;;;10.10;99.90;;;;;;4991254;28;20599;-57
2022/01/03 10:24:57;;;;;;;23.38;4.22;;;10.10;99.90;;;;;;4988968;28;20089;-56
2022/01/03 10:27:25;;;;;;;35.72;4.60;;;10.10;99.90;;;;;;4973642;28;20050;-56
2022/01/03 10:29:59;;;;;;;42.80;5.82;;;10.10;99.90;;;;;;4991722;28;20100;-56
2022/01/03 10:32:30;;;;;;;25.05;3.92;;;10.20;99.90;;;;;;4992610;28;20050;-57
2022/01/03 10:34:58;;;;;;;24.40;4.57;;;10.30;99.90;;;;;;4991305;28;20117;-56
2022/01/03 10:37:36;;;;;;;29.83;4.65;;;10.40;99.90;;;;;;4992734;28;20045;-56
2022/01/03 10:40:25;;;;;;;33.80;4.40;;;10.60;99.90;;;;;;4992380;28;20046;-58
2022/01/03 10:42:51;;;;;;;28.90;4.78;;;10.70;99.90;;;;;;4992596;28;20648;-58
2022/01/03 10:45:30;;;;;;;26.92;4.95;;;10.90;99.90;;;;;;4992868;28;20038;-57
2022/01/03 10:47:56;;;;;;;21.02;3.78;;;10.70;99.90;;;;;;4992425;28;20470;-58
2022/01/03 10:50:22;;;;;;;26.25;4.43;;;10.70;99.90;;;;;;4992133;28;20097;-57
2022/01/03 10:52:49;;;;;;;28.98;5.10;;;10.70;99.90;;;;;;4992509;28;20042;-58
2022/01/03 10:55:35;;;;;;;29.67;4.20;;;10.80;99.90;;;;;;4975203;28;20389;-57
2022/01/03 10:58:06;;;;;;;39.95;5.18;;;10.80;99.90;;;;;;4992374;28;20073;-59
2022/01/03 11:00:38;;;;;;;31.08;5.13;;;10.90;99.90;;;;;;4992406;28;20034;-58
2022/01/03 11:03:20;;;;;;;29.58;4.25;;;10.90;99.90;;;;;;4991761;28;20100;-59
2022/01/03 11:05:54;;;;;;;28.17;4.15;;;10.90;99.90;;;;;;4992486;28;20509;-58
2022/01/03 11:11:11;;;;;;;29.33;4.45;;;10.90;99.90;;;;;;4991552;28;20057;-58
2022/01/03 11:13:43;;;;;;;26.67;4.18;;;10.90;99.90;;;;;;4974192;28;20065;-57
2022/01/03 11:16:11;;;;;;;33.03;5.10;;;10.90;99.90;;;;;;4992495;28;20042;-57
2022/01/03 11:18:54;;;;;;;32.70;4.65;;;11.00;99.90;;;;;;4991504;28;20461;-58
2022/01/03 11:21:24;;;;;;;39.17;4.57;;;11.10;99.90;;;;;;4991862;28;20061;-57
2022/01/03 11:24:04;;;;;;;34.15;4.60;;;11.10;99.90;;;;;;4991885;28;20278;-58
2022/01/03 11:26:33;;;;;;;27.88;4.28;;;11.10;99.90;;;;;;4991829;28;20045;-57
2022/01/03 11:29:02;;;;;;;35.42;4.47;;;11.10;99.90;;;;;;4992097;28;20042;-57
2022/01/03 11:31:33;;;;;;;28.83;4.88;;;11.20;99.90;;;;;;4992057;28;20046;-57
2022/01/03 11:33:59;;;;;;;32.20;4.88;;;11.20;99.90;;;;;;4991421;28;20148;-57
2022/01/03 11:36:26;;;;;;;28.10;4.35;;;11.10;99.90;;;;;;4991476;28;20034;-57
2022/01/03 11:38:56;;;;;;;33.35;4.50;;;11.10;99.90;;;;;;4991998;28;20073;-58
2022/01/03 11:41:22;;;;;;;28.65;5.03;;;11.00;99.90;;;;;;4981014;28;20054;-58
2022/01/03 11:43:49;;;;;;;30.08;4.55;;;11.10;99.90;;;;;;4985631;28;20089;-59
2022/01/03 11:46:15;;;;;;;30.20;5.40;;;11.20;99.90;;;;;;4983848;28;20522;-58
2022/01/03 11:48:40;;;;;;;30.55;4.45;;;11.30;99.90;;;;;;4984639;28;20042;-58
2022/01/03 11:51:10;;;;;;;29.75;4.32;;;11.50;99.90;;;;;;4986654;28;20035;-58
2022/01/03 11:53:42;;;;;;;25.13;3.67;;;11.50;99.90;;;;;;4987751;28;20039;-58
2022/01/03 11:56:15;;;;;;;30.65;4.28;;;11.50;99.90;;;;;;4988914;28;20038;-58
2022/01/03 11:58:59;;;;;;;23.95;4.60;;;11.50;99.90;;;;;;4984550;28;20026;-57
2022/01/03 12:04:37;;;;;;;26.50;4.18;;;11.20;99.90;;;;;;4975545;28;20096;-57
2022/01/03 12:07:13;;;;;;;23.88;3.72;;;11.30;99.90;;;;;;4972169;28;20038;-57
2022/01/03 12:09:43;;;;;;;32.72;4.38;;;11.20;99.90;;;;;;4961047;28;20821;-58
2022/01/03 12:12:09;;;;;;;28.17;4.68;;;11.20;99.90;;;;;;4969971;28;20034;-58
2022/01/03 12:14:46;;;;;;;32.47;4.70;;;11.30;99.90;;;;;;4975120;28;20052;-58
2022/01/03 12:17:14;;;;;;;28.13;3.90;;;11.30;99.90;;;;;;4968616;28;20051;-58
2022/01/03 12:19:46;;;;;;;27.83;4.35;;;11.40;99.90;;;;;;4931280;28;20122;-58
2022/01/03 12:22:47;;;;;;;25.48;4.28;;;11.40;99.90;;;;;;4934485;29;20044;-58
2022/01/03 12:25:28;;;;;;;28.15;4.80;;;11.50;99.90;;;;;;4936528;29;20051;-58
2022/01/03 12:27:58;;;;;;;24.02;4.38;;;11.50;99.90;;;;;;4934112;29;20035;-57
2022/01/03 12:30:28;;;;;;;27.80;4.63;;;11.50;99.90;;;;;;4935744;29;20047;-57
2022/01/03 12:33:08;;;;;;;26.55;4.68;;;11.50;99.90;;;;;;4934199;29;20124;-57
2022/01/03 12:35:36;;;;;;;29.67;4.47;;;11.50;99.90;;;;;;4932840;29;20039;-57
2022/01/03 12:38:04;;;;;;;32.30;4.57;;;11.50;99.90;;;;;;4933989;29;20060;-57
2022/01/03 12:40:34;;;;;;;29.55;4.72;;;11.40;99.90;;;;;;4935234;29;20054;-58
2022/01/03 12:43:05;;;;;;;26.08;4.38;;;11.50;99.90;;;;;;4935751;29;20550;-58
2022/01/03 12:45:34;;;;;;;27.10;4.05;;;11.50;99.90;;;;;;4933676;28;20055;-57
2022/01/03 12:48:09;;;;;;;35.20;5.28;;;11.50;99.90;;;;;;4931678;29;20070;-58
2022/01/03 12:51:00;;;;;;;26.65;4.28;;;11.50;99.90;;;;;;4933798;28;20044;-58
2022/01/03 12:53:26;;;;;;;31.25;4.38;;;11.50;99.90;;;;;;4932291;28;20047;-57
2022/01/03 12:56:01;;;;;;;24.65;3.90;;;11.50;99.90;;;;;;4934103;29;20053;-58
2022/01/03 12:58:26;;;;;;;30.23;4.82;;;11.50;99.90;;;;;;4936324;28;20063;-58
2022/01/03 13:01:12;;;;;;;28.77;4.22;;;11.60;99.90;;;;;;4936645;28;20122;-58
2022/01/03 13:03:52;;;;;;;26.30;4.30;;;11.70;99.90;;;;;;4937189;29;20534;-58
2022/01/03 13:06:35;;;;;;;29.00;4.05;;;11.60;99.90;;;;;;4939310;29;20090;-58
2022/01/03 13:09:02;;;;;;;28.13;4.55;;;11.50;99.90;;;;;;4937325;29;20048;-58
2022/01/03 13:11:31;;;;;;;31.50;5.95;;;11.40;99.90;;;;;;4938757;29;20085;-58